createdAt,value
2018-04-08T00:00:28.268Z,69.80
2018-04-08T00:03:50.764Z,69.80
2018-04-08T00:07:13.204Z,69.90
2018-04-08T00:10:35.635Z,70.10
2018-04-08T00:13:58.079Z,70.30
2018-04-08T00:17:20.515Z,70.00
2018-04-08T00:20:42.959Z,70.10
2018-04-08T00:24:05.410Z,70.40
2018-04-08T00:27:28.617Z,70.80
2018-04-08T00:30:51.060Z,70.70
2018-04-08T00:34:13.495Z,70.70
2018-04-08T00:37:35.943Z,71.10
2018-04-08T00:40:58.400Z,71.50
2018-04-08T00:44:20.840Z,71.70
2018-04-08T00:47:43.332Z,72.00
2018-04-08T00:51:05.763Z,72.10
2018-04-08T00:54:32.035Z,72.20
2018-04-08T00:57:54.483Z,72.70
2018-04-08T01:01:16.915Z,72.90
2018-04-08T01:04:39.364Z,73.30
2018-04-08T01:08:01.808Z,73.60
2018-04-08T01:11:24.243Z,73.70
2018-04-08T01:14:46.696Z,73.90
2018-04-08T01:18:09.903Z,74.60
2018-04-08T01:21:32.339Z,74.50
2018-04-08T01:24:55.561Z,74.90
2018-04-08T01:28:18.013Z,75.00
2018-04-08T01:31:40.503Z,74.90
2018-04-08T01:35:02.967Z,75.00
2018-04-08T01:38:25.439Z,74.90
2018-04-08T01:41:47.904Z,74.90
2018-04-08T01:45:10.336Z,75.60
2018-04-08T01:48:32.791Z,75.70
2018-04-08T01:51:55.227Z,75.90
2018-04-08T01:55:17.671Z,76.30
2018-04-08T01:58:40.232Z,77.10
2018-04-08T02:02:02.664Z,76.60
2018-04-08T02:05:25.107Z,76.50
2018-04-08T02:08:48.331Z,77.10
2018-04-08T02:12:10.771Z,77.00
2018-04-08T02:15:33.212Z,77.20
2018-04-08T02:18:56.424Z,77.70
2018-04-08T02:22:18.867Z,77.60
2018-04-08T02:25:42.113Z,78.00
2018-04-08T02:29:05.319Z,78.00
2018-04-08T02:32:28.569Z,78.00
2018-04-08T02:35:51.017Z,78.00
2018-04-08T02:39:13.520Z,78.10
2018-04-08T02:42:35.948Z,78.30
2018-04-08T02:45:58.401Z,78.60
2018-04-08T02:49:20.841Z,78.50
2018-04-08T02:52:44.067Z,79.00
2018-04-08T02:56:06.512Z,78.90
2018-04-08T02:59:28.965Z,78.90
2018-04-08T03:02:52.175Z,79.20
2018-04-08T03:06:14.625Z,79.20
2018-04-08T03:09:37.055Z,80.30
2018-04-08T03:13:00.270Z,79.50
2018-04-08T03:16:22.704Z,79.50
2018-04-08T03:19:45.911Z,79.90
2018-04-08T03:23:08.360Z,79.90
2018-04-08T03:26:31.562Z,79.80
2018-04-08T03:29:54.004Z,79.80
2018-04-08T03:33:17.214Z,80.00
2018-04-08T03:36:39.659Z,80.00
2018-04-08T03:40:02.863Z,79.80
2018-04-08T03:43:25.307Z,79.90
2018-04-08T03:46:48.511Z,80.00
2018-04-08T03:50:10.962Z,80.00
2018-04-08T03:53:33.411Z,80.20
2018-04-08T03:56:56.625Z,80.60
2018-04-08T04:00:19.063Z,80.60
2018-04-08T04:03:42.272Z,81.30
2018-04-08T04:07:04.716Z,81.20
2018-04-08T04:10:27.931Z,81.60
2018-04-08T04:13:50.376Z,81.60
2018-04-08T04:17:12.815Z,81.70
2018-04-08T04:20:47.966Z,82.40
2018-04-08T04:24:22.455Z,82.30
2018-04-08T04:27:44.879Z,82.40
2018-04-08T04:31:07.323Z,82.40
2018-04-08T04:34:29.791Z,83.50
2018-04-08T04:37:52.232Z,82.50
2018-04-08T04:41:14.679Z,82.50
2018-04-08T04:44:37.118Z,82.80
2018-04-08T04:48:00.331Z,82.90
2018-04-08T04:51:22.776Z,82.90
2018-04-08T04:54:46.036Z,83.00
2018-04-08T04:58:08.563Z,82.90
2018-04-08T05:01:31.015Z,83.00
2018-04-08T05:04:53.455Z,82.90
2018-04-08T05:08:15.905Z,83.30
2018-04-08T05:11:39.172Z,83.20
2018-04-08T05:15:02.352Z,83.20
2018-04-08T05:18:24.792Z,83.20
2018-04-08T05:21:47.239Z,83.30
2018-04-08T05:25:09.683Z,83.10
2018-04-08T05:28:32.197Z,82.80
2018-04-08T05:31:54.638Z,83.00
2018-04-08T05:35:17.075Z,82.90
2018-04-08T05:38:40.295Z,82.70
2018-04-08T05:42:02.748Z,82.70
2018-04-08T05:45:25.198Z,82.40
2018-04-08T05:48:47.636Z,82.10
2018-04-08T05:52:10.083Z,81.20
2018-04-08T05:55:32.520Z,80.30
2018-04-08T05:58:55.004Z,78.30
2018-04-08T06:02:17.453Z,76.80
2018-04-08T06:05:39.895Z,75.30
2018-04-08T06:09:02.363Z,73.70
2018-04-08T06:12:24.807Z,71.90
2018-04-08T06:15:48.024Z,68.10
2018-04-08T06:19:10.469Z,68.10
2018-04-08T06:22:32.924Z,66.10
2018-04-08T06:25:56.190Z,64.50
2018-04-08T06:29:18.651Z,64.40
2018-04-08T06:32:41.869Z,63.60
2018-04-08T06:36:04.311Z,62.60
2018-04-08T06:39:27.524Z,60.00
2018-04-08T06:42:49.972Z,60.00
2018-04-08T06:46:12.448Z,59.70
2018-04-08T06:49:34.913Z,59.20
2018-04-08T06:52:57.359Z,58.00
2018-04-08T06:56:20.571Z,57.00
2018-04-08T06:59:43.034Z,56.90
2018-04-08T07:03:05.527Z,57.40
2018-04-08T07:06:27.992Z,56.30
2018-04-08T07:09:50.440Z,55.90
2018-04-08T07:13:12.888Z,56.70
2018-04-08T07:16:35.340Z,55.50
2018-04-08T07:19:57.784Z,55.30
2018-04-08T07:23:20.999Z,53.40
2018-04-08T07:26:43.456Z,53.30
2018-04-08T07:30:05.895Z,52.60
2018-04-08T07:33:29.218Z,52.80
2018-04-08T07:36:51.667Z,52.70
2018-04-08T07:40:14.120Z,52.10
2018-04-08T07:43:37.332Z,50.40
2018-04-08T07:46:59.790Z,50.40
2018-04-08T07:50:22.231Z,50.00
2018-04-08T07:53:45.443Z,49.00
2018-04-08T07:57:07.891Z,49.00
2018-04-08T08:00:31.256Z,48.80
2018-04-08T08:03:54.475Z,48.00
2018-04-08T08:07:16.924Z,48.00
2018-04-08T08:10:39.363Z,47.00
2018-04-08T08:14:02.586Z,46.90
2018-04-08T08:17:25.033Z,46.80
2018-04-08T08:20:48.238Z,45.50
2018-04-08T08:24:10.688Z,45.40
2018-04-08T08:27:33.135Z,44.40
2018-04-08T08:30:56.344Z,44.80
2018-04-08T08:34:18.816Z,44.80
2018-04-08T08:37:41.268Z,43.20
2018-04-08T08:41:03.712Z,43.40
2018-04-08T08:44:26.927Z,42.20
2018-04-08T08:47:49.371Z,42.20
2018-04-08T08:51:11.815Z,41.60
2018-04-08T08:54:34.259Z,41.30
2018-04-08T08:57:56.712Z,41.90
2018-04-08T09:01:19.148Z,42.00
2018-04-08T09:04:41.592Z,41.30
2018-04-08T09:08:04.803Z,40.10
2018-04-08T09:11:27.247Z,40.10
2018-04-08T09:14:49.712Z,40.30
2018-04-08T09:18:12.163Z,39.90
2018-04-08T09:21:41.127Z,38.50
2018-04-08T09:25:03.575Z,39.00
2018-04-08T09:28:26.032Z,38.30
2018-04-08T09:31:48.472Z,38.70
2018-04-08T09:35:11.698Z,37.80
2018-04-08T09:38:34.164Z,37.80
2018-04-08T09:41:56.607Z,39.00
2018-04-08T09:45:19.051Z,37.70
2018-04-08T09:48:42.272Z,37.50
2018-04-08T09:52:04.724Z,37.40
2018-04-08T09:55:27.180Z,37.80
2018-04-08T09:58:50.388Z,36.80
2018-04-08T10:06:12.403Z,37.80
2018-04-08T10:09:34.851Z,36.70
2018-04-08T10:12:57.292Z,35.90
2018-04-08T10:16:20.500Z,37.00
2018-04-08T10:19:42.952Z,36.90
2018-04-08T10:23:05.391Z,35.90
2018-04-08T10:26:28.604Z,33.40
2018-04-08T10:29:51.052Z,33.40
2018-04-08T10:33:14.274Z,30.10
2018-04-08T10:36:36.716Z,30.00
2018-04-08T10:39:59.184Z,29.80
2018-04-08T10:43:21.645Z,31.20
2018-04-08T10:46:44.091Z,28.40
2018-04-08T10:50:07.322Z,28.30
2018-04-08T10:53:29.760Z,28.30
2018-04-08T10:56:52.202Z,29.40
2018-04-08T11:00:15.419Z,29.90
2018-04-08T11:03:37.977Z,29.90
2018-04-08T11:07:00.399Z,30.30
2018-04-08T11:10:22.851Z,30.70
2018-04-08T11:13:45.296Z,30.60
2018-04-08T11:17:07.739Z,30.60
2018-04-08T11:20:30.188Z,30.00
2018-04-08T11:23:53.509Z,30.00
2018-04-08T11:27:15.952Z,30.60
2018-04-08T11:30:38.407Z,30.60
2018-04-08T11:34:00.852Z,30.10
2018-04-08T11:37:24.087Z,31.40
2018-04-08T11:40:47.307Z,32.40
2018-04-08T11:44:09.771Z,32.20
2018-04-08T11:47:32.303Z,32.10
2018-04-08T11:50:54.755Z,31.40
2018-04-08T11:54:17.204Z,32.40
2018-04-08T11:57:39.647Z,32.10
2018-04-08T12:01:02.865Z,30.80
2018-04-08T12:04:25.318Z,30.70
2018-04-08T12:07:47.756Z,31.00
2018-04-08T12:11:10.975Z,31.30
2018-04-08T12:14:33.534Z,31.30
2018-04-08T12:17:55.963Z,31.70
2018-04-08T12:21:18.412Z,31.10
2018-04-08T12:24:40.863Z,31.20
2018-04-08T12:28:03.308Z,30.40
2018-04-08T12:31:25.756Z,30.90
2018-04-08T12:34:48.204Z,31.70
2018-04-08T12:38:11.517Z,30.90
2018-04-08T12:41:33.956Z,30.90
2018-04-08T12:44:57.171Z,30.90
2018-04-08T12:48:19.615Z,30.80
2018-04-08T12:51:42.868Z,31.30
2018-04-08T12:55:05.280Z,31.30
2018-04-08T12:58:27.720Z,32.70
2018-04-08T13:01:50.939Z,31.20
2018-04-08T13:05:13.491Z,31.10
2018-04-08T13:08:35.928Z,31.70
2018-04-08T13:11:59.139Z,32.20
2018-04-08T13:15:21.603Z,32.10
2018-04-08T13:18:44.047Z,32.80
2018-04-08T13:22:07.303Z,31.90
2018-04-08T13:25:29.756Z,32.50
2018-04-08T13:28:52.204Z,31.60
2018-04-08T13:32:14.648Z,32.70
2018-04-08T13:35:37.191Z,33.30
2018-04-08T13:39:00.412Z,34.10
2018-04-08T13:42:22.879Z,34.00
2018-04-08T13:45:45.309Z,33.80
2018-04-08T13:49:08.519Z,34.40
2018-04-08T13:52:31.078Z,34.30
2018-04-08T13:55:53.542Z,34.40
2018-04-08T13:59:16.140Z,33.90
2018-04-08T14:02:38.701Z,33.10
2018-04-08T14:06:01.151Z,33.60
2018-04-08T14:09:23.612Z,34.00
2018-04-08T14:12:46.160Z,33.90
2018-04-08T14:16:09.376Z,34.20
2018-04-08T14:19:31.820Z,33.50
2018-04-08T14:22:54.332Z,34.40
2018-04-08T14:26:16.788Z,34.30
2018-04-08T14:29:39.236Z,34.10
2018-04-08T14:33:01.682Z,34.20
2018-04-08T14:36:24.139Z,35.00
2018-04-08T14:39:46.587Z,34.80
2018-04-08T14:43:09.796Z,34.00
2018-04-08T14:46:32.271Z,33.90
2018-04-08T14:49:55.467Z,34.40
2018-04-08T14:53:17.906Z,34.30
2018-04-08T14:56:40.356Z,35.90
2018-04-08T15:00:03.648Z,34.70
2018-04-08T15:03:26.094Z,34.70
2018-04-08T15:06:49.357Z,35.90
2018-04-08T15:10:11.755Z,35.80
2018-04-08T15:13:34.237Z,35.50
2018-04-08T15:16:56.669Z,36.40
2018-04-08T15:20:19.940Z,36.30
2018-04-08T15:23:42.380Z,36.20
2018-04-08T15:27:04.843Z,35.50
2018-04-08T15:30:27.304Z,35.50
2018-04-08T15:33:49.759Z,35.70
2018-04-08T15:37:12.253Z,35.80
2018-04-08T15:40:34.664Z,36.80
2018-04-08T15:43:57.108Z,36.60
2018-04-08T15:47:20.333Z,37.00
2018-04-08T15:50:42.785Z,36.90
2018-04-08T15:54:05.232Z,37.80
2018-04-08T15:57:28.454Z,37.60
2018-04-08T16:00:50.916Z,37.50
2018-04-08T16:04:13.423Z,38.00
2018-04-08T16:07:35.925Z,38.10
2018-04-08T16:10:58.369Z,38.50
2018-04-08T16:14:21.584Z,38.60
2018-04-08T16:17:44.046Z,38.60
2018-04-08T16:21:06.492Z,39.20
2018-04-08T16:24:28.936Z,38.90
2018-04-08T16:27:51.507Z,39.40
2018-04-08T16:31:14.399Z,38.80
2018-04-08T16:34:37.677Z,39.10
2018-04-08T16:38:00.192Z,39.10
2018-04-08T16:41:22.619Z,39.50
2018-04-08T16:44:45.108Z,39.50
2018-04-08T16:48:07.567Z,39.60
2018-04-08T16:51:30.012Z,40.20
2018-04-08T16:54:53.322Z,40.20
2018-04-08T16:58:15.755Z,40.10
2018-04-08T17:01:38.971Z,40.40
2018-04-08T17:05:01.431Z,40.40
2018-04-08T17:08:24.172Z,40.80
2018-04-08T17:11:47.532Z,41.40
2018-04-08T17:15:09.983Z,41.40
2018-04-08T17:18:32.439Z,41.80
2018-04-08T17:21:54.892Z,42.40
2018-04-08T17:25:17.507Z,42.90
2018-04-08T17:28:40.898Z,43.80
2018-04-08T17:32:04.179Z,44.20
2018-04-08T17:35:26.791Z,44.10
2018-04-08T17:38:49.264Z,44.80
2018-04-08T17:42:11.835Z,44.90
2018-04-08T17:45:34.288Z,45.40
2018-04-08T17:48:56.859Z,45.70
2018-04-08T17:52:19.423Z,45.90
2018-04-08T17:55:41.858Z,46.20
2018-04-08T17:59:05.103Z,46.70
2018-04-08T18:02:27.552Z,46.70
2018-04-08T18:05:50.003Z,46.80
2018-04-08T18:09:12.456Z,47.30
2018-04-08T18:12:34.932Z,47.50
2018-04-08T18:15:57.452Z,47.60
2018-04-08T18:19:19.958Z,48.10
2018-04-08T18:22:42.468Z,48.30
2018-04-08T18:26:05.140Z,48.60
2018-04-08T18:29:27.659Z,49.00
2018-04-08T18:32:56.485Z,49.20
2018-04-08T18:36:18.929Z,49.50
2018-04-08T18:39:42.263Z,49.90
2018-04-08T18:43:06.020Z,49.80
2018-04-08T18:46:28.635Z,50.30
2018-04-08T18:49:51.205Z,50.40
2018-04-08T18:53:14.454Z,51.10
2018-04-08T18:56:36.952Z,51.10
2018-04-08T18:59:59.380Z,51.50
2018-04-08T19:03:21.826Z,51.60
2018-04-08T19:06:45.033Z,52.20
2018-04-08T19:10:07.499Z,52.10
2018-04-08T19:13:29.941Z,52.40
2018-04-08T19:16:53.150Z,52.90
2018-04-08T19:20:15.592Z,52.90
2018-04-08T19:23:38.814Z,53.20
2018-04-08T19:27:01.254Z,53.20
2018-04-08T19:30:23.720Z,53.50
2018-04-08T19:33:46.171Z,53.80
2018-04-08T19:37:09.382Z,55.30
2018-04-08T19:40:31.822Z,54.60
2018-04-08T19:43:54.267Z,54.80
2018-04-08T19:47:17.539Z,55.40
2018-04-08T19:50:39.983Z,55.40
2018-04-08T19:54:02.491Z,55.30
2018-04-08T19:57:25.708Z,55.30
2018-04-08T20:00:48.165Z,55.90
2018-04-08T20:04:10.612Z,55.30
2018-04-08T20:07:33.084Z,55.80
2018-04-08T20:10:56.303Z,56.10
2018-04-08T20:14:18.845Z,56.10
2018-04-08T20:17:41.280Z,56.40
2018-04-08T20:21:04.484Z,56.50
2018-04-08T20:24:27.715Z,56.70
2018-04-08T20:27:50.160Z,56.70
2018-04-08T20:31:12.610Z,56.70
2018-04-08T20:34:35.046Z,56.80
2018-04-08T20:37:58.260Z,57.30
2018-04-08T20:41:20.704Z,57.30
2018-04-08T20:44:43.140Z,57.60
2018-04-08T20:48:05.584Z,57.80
2018-04-08T20:51:28.783Z,58.40
2018-04-08T20:54:51.235Z,59.10
2018-04-08T20:58:13.679Z,58.70
2018-04-08T21:01:36.118Z,58.70
2018-04-08T21:04:58.559Z,58.70
2018-04-08T21:08:21.768Z,59.30
2018-04-08T21:11:44.204Z,59.20
2018-04-08T21:15:07.424Z,59.80
2018-04-08T21:18:29.855Z,59.80
2018-04-08T21:21:53.064Z,60.40
2018-04-08T21:25:15.503Z,60.20
2018-04-08T21:28:38.723Z,60.70
2018-04-08T21:32:01.159Z,60.70
2018-04-08T21:35:24.387Z,61.10
2018-04-08T21:38:46.848Z,61.90
2018-04-08T21:42:09.289Z,62.00
2018-04-08T21:45:31.751Z,62.00
2018-04-08T21:48:54.963Z,62.80
2018-04-08T21:52:17.395Z,62.80
2018-04-08T21:55:39.839Z,63.10
2018-04-08T21:59:03.056Z,63.60
2018-04-08T22:02:25.496Z,63.60
2018-04-08T22:05:48.712Z,64.00
2018-04-08T22:09:11.191Z,63.90
2018-04-08T22:12:33.640Z,63.90
2018-04-08T22:15:56.095Z,63.90
2018-04-08T22:19:18.531Z,63.90
2018-04-08T22:22:41.750Z,63.90
2018-04-08T22:26:04.231Z,63.80
2018-04-08T22:29:26.675Z,64.20
2018-04-08T22:32:49.115Z,64.30
2018-04-08T22:36:12.323Z,64.60
2018-04-08T22:39:34.772Z,64.50
2018-04-08T22:42:57.207Z,64.60
2018-04-08T22:46:19.653Z,64.80
2018-04-08T22:49:42.199Z,64.90
2018-04-08T22:53:04.643Z,65.00
2018-04-08T22:56:27.084Z,65.20
2018-04-08T22:59:50.291Z,66.30
2018-04-08T23:03:12.744Z,66.20
2018-04-08T23:06:35.943Z,66.50
2018-04-08T23:09:58.385Z,66.40
2018-04-08T23:13:21.596Z,66.60
2018-04-08T23:16:44.031Z,66.50
2018-04-08T23:20:07.256Z,66.50
2018-04-08T23:23:29.732Z,66.50
2018-04-08T23:26:52.176Z,66.50
2018-04-08T23:30:14.630Z,66.70
2018-04-08T23:33:37.072Z,66.60
2018-04-08T23:37:00.377Z,66.90
2018-04-08T23:40:22.822Z,66.80
2018-04-08T23:43:46.035Z,67.50
2018-04-08T23:47:08.475Z,67.40
2018-04-08T23:50:30.926Z,67.80
2018-04-08T23:53:54.143Z,69.10
2018-04-08T23:57:16.601Z,69.70
